Time;durP1;ratioP1;P1;durP2;ratioP2;P2;SDS_P1;SDS_P2;PMS_P1;PMS_P2;Temp;Humidity;BMP_temperature;BMP_pressure;BME280_temperature;BME280_humidity;BME280_pressure;Samples;Min_cycle;Max_cycle;Signal;HPM_P1;HPM_P2
2022/07/17 00:00:42;;;;;;;0.10;0.10;;;;;;;22.02;53.03;102285.66;5130341;27;20092;-37
2022/07/17 00:03:08;;;;;;;0.10;0.10;;;;;;;22.01;53.08;102283.97;5136059;27;20082;-37
2022/07/17 00:05:34;;;;;;;0.10;0.10;;;;;;;22.02;53.12;102282.88;5136096;27;20486;-37
2022/07/17 00:08:00;;;;;;;0.10;0.10;;;;;;;22.01;53.13;102289.50;5133707;27;20503;-38
2022/07/17 00:10:26;;;;;;;0.10;0.10;;;;;;;22.02;53.15;102282.88;5136363;27;20039;-38
2022/07/17 00:12:52;;;;;;;0.10;0.10;;;;;;;22.02;53.17;102282.03;5138628;27;20099;-37
2022/07/17 00:15:18;;;;;;;0.10;0.10;;;;;;;22.01;53.09;102270.09;5131460;27;20078;-37
2022/07/17 00:17:44;;;;;;;0.10;0.10;;;;;;;22.01;52.91;102269.25;5117989;27;20083;-37
2022/07/17 00:20:10;;;;;;;0.10;0.10;;;;;;;22.02;53.09;102273.69;5138966;27;20047;-37
2022/07/17 00:22:36;;;;;;;0.10;0.10;;;;;;;22.01;53.09;102270.09;5121559;27;20091;-37
2022/07/17 00:25:03;;;;;;;0.10;0.10;;;;;;;22.02;53.05;102262.59;5114651;27;20107;-37
2022/07/17 00:27:29;;;;;;;0.10;0.10;;;;;;;22.01;53.10;102270.09;5118429;27;20103;-37
2022/07/17 00:29:55;;;;;;;0.10;0.10;;;;;;;22.01;53.07;102264.53;5117943;27;20393;-36
2022/07/17 00:32:23;;;;;;;0.10;0.10;;;;;;;22.01;53.20;102264.53;5139972;27;20133;-38
2022/07/17 00:34:49;;;;;;;0.10;0.10;;;;;;;22.03;53.11;102269.84;5134076;27;20172;-38
2022/07/17 00:37:15;;;;;;;0.20;0.20;;;;;;;22.02;53.03;102271.78;5130840;27;20430;-38
2022/07/17 00:39:40;;;;;;;0.10;0.10;;;;;;;22.03;53.19;102267.06;5137270;27;20092;-38
2022/07/17 00:42:12;;;;;;;0.10;0.10;;;;;;;22.01;53.08;102272.88;5133971;27;20105;-36
2022/07/17 00:44:40;;;;;;;0.10;0.10;;;;;;;22.02;53.02;102279.25;5114911;27;20035;-37
2022/07/17 00:47:13;;;;;;;0.10;0.10;;;;;;;22.01;53.04;102281.19;5113909;27;20120;-37
2022/07/17 00:49:39;;;;;;;0.10;0.10;;;;;;;22.02;53.08;102279.25;5114619;27;20043;-37
2022/07/17 00:52:05;;;;;;;0.10;0.10;;;;;;;22.00;52.98;102273.97;5139490;27;20084;-37
2022/07/17 00:54:31;;;;;;;0.10;0.10;;;;;;;22.02;53.04;102274.56;5137078;27;20088;-37
2022/07/17 00:56:58;;;;;;;0.10;0.10;;;;;;;22.01;53.09;102278.41;5137097;27;20050;-37
2022/07/17 00:59:24;;;;;;;0.10;0.10;;;;;;;22.01;53.08;102272.88;5137829;27;20271;-37
2022/07/17 01:01:50;;;;;;;0.10;0.10;;;;;;;22.00;53.02;102270.38;5136062;27;20117;-38
2022/07/17 01:04:16;;;;;;;0.10;0.10;;;;;;;22.01;52.84;102270.09;5133946;27;20046;-38
2022/07/17 01:06:41;;;;;;;0.10;0.10;;;;;;;22.01;53.00;102272.03;5138718;27;20047;-40
2022/07/17 01:09:10;;;;;;;0.10;0.10;;;;;;;22.01;53.09;102272.03;5134363;27;20143;-37
2022/07/17 01:11:36;;;;;;;0.10;0.10;;;;;;;22.01;52.96;102275.63;5112649;27;20071;-37
2022/07/17 01:14:02;;;;;;;0.10;0.10;;;;;;;22.01;53.01;102270.09;5133885;27;20035;-38
2022/07/17 01:16:28;;;;;;;0.10;0.10;;;;;;;22.02;53.05;102274.56;5133536;27;20190;-37
2022/07/17 01:18:56;;;;;;;0.10;0.10;;;;;;;22.01;53.00;102272.88;5101885;27;20044;-36
2022/07/17 01:21:21;;;;;;;0.13;0.13;;;;;;;22.02;53.03;102270.91;5137870;27;20066;-39
2022/07/17 01:23:48;;;;;;;0.10;0.10;;;;;;;22.00;53.08;102271.19;5132313;27;20063;-36
2022/07/17 01:26:14;;;;;;;0.10;0.10;;;;;;;22.00;53.09;102268.44;5114275;27;20040;-37
2022/07/17 01:28:40;;;;;;;0.10;0.10;;;;;;;22.01;53.03;102269.25;5135142;27;20050;-37
2022/07/17 01:31:05;;;;;;;0.10;0.10;;;;;;;22.02;53.22;102270.91;5134287;27;20072;-37
2022/07/17 01:33:31;;;;;;;0.10;0.10;;;;;;;22.02;53.12;102266.25;5132186;27;20470;-37
2022/07/17 01:35:57;;;;;;;0.10;0.10;;;;;;;22.02;53.07;102268.16;5120719;27;20066;-38
2022/07/17 01:38:22;;;;;;;0.10;0.10;;;;;;;22.00;53.10;102264.81;5118323;27;20162;-39
2022/07/17 01:40:48;;;;;;;0.10;0.10;;;;;;;22.01;53.11;102272.03;5133871;27;20046;-39
2022/07/17 01:43:14;;;;;;;0.10;0.10;;;;;;;22.01;52.96;102267.31;5134813;27;20047;-37
2022/07/17 01:45:40;;;;;;;0.10;0.10;;;;;;;22.01;53.10;102258.16;5139363;27;20351;-37
2022/07/17 01:48:05;;;;;;;0.10;0.10;;;;;;;22.00;53.03;102264.81;5137970;27;20043;-38
2022/07/17 01:50:32;;;;;;;0.10;0.10;;;;;;;22.01;52.87;102258.16;5139912;27;20043;-37
2022/07/17 01:52:57;;;;;;;0.10;0.10;;;;;;;22.01;52.94;102255.38;5119234;27;20485;-37
2022/07/17 01:55:23;;;;;;;0.10;0.10;;;;;;;22.01;52.93;102252.63;5135310;27;20389;-37
2022/07/17 01:57:49;;;;;;;0.10;0.10;;;;;;;22.01;53.07;102260.94;5144681;27;20039;-38
2022/07/17 02:00:16;;;;;;;0.10;0.10;;;;;;;22.01;53.03;102253.44;5144001;27;20049;-36
2022/07/17 02:02:42;;;;;;;0.10;0.10;;;;;;;22.02;52.87;102252.38;5139667;27;20050;-37
2022/07/17 02:05:08;;;;;;;0.10;0.10;;;;;;;22.01;53.07;102256.22;5138272;27;20039;-37
2022/07/17 02:07:34;;;;;;;0.10;0.10;;;;;;;22.01;53.02;102255.38;5116916;27;20072;-37
2022/07/17 02:10:00;;;;;;;0.10;0.10;;;;;;;22.01;53.09;102258.16;5140544;27;20184;-37
2022/07/17 02:12:26;;;;;;;0.10;0.10;;;;;;;22.00;52.98;102254.56;5139425;27;20055;-39
2022/07/17 02:14:52;;;;;;;0.10;0.10;;;;;;;22.01;52.96;102249.84;5121438;27;20043;-38
2022/07/17 02:17:17;;;;;;;0.10;0.10;;;;;;;22.01;53.02;102247.91;5140531;27;20043;-39
2022/07/17 02:19:43;;;;;;;0.10;0.10;;;;;;;22.01;52.89;102249.84;5135224;27;20046;-37
2022/07/17 02:22:09;;;;;;;0.10;0.10;;;;;;;21.99;52.90;102243.75;5138625;27;20469;-37
2022/07/17 02:24:35;;;;;;;0.10;0.10;;;;;;;21.99;53.14;102240.97;5139508;27;20046;-37
2022/07/17 02:27:01;;;;;;;0.10;0.10;;;;;;;22.01;52.96;102244.28;5138692;27;20462;-38
2022/07/17 02:29:26;;;;;;;0.10;0.10;;;;;;;22.01;52.93;102247.06;5137278;27;20042;-38
2022/07/17 02:31:52;;;;;;;0.10;0.10;;;;;;;22.01;53.04;102244.28;5133065;27;20042;-38
2022/07/17 02:34:18;;;;;;;0.10;0.10;;;;;;;22.00;52.97;102246.22;5137497;27;20374;-35
2022/07/17 02:36:43;;;;;;;0.10;0.10;;;;;;;22.00;53.00;102248.19;5137467;27;20206;-38
2022/07/17 02:39:09;;;;;;;0.10;0.10;;;;;;;21.99;53.03;102247.34;5136978;27;20035;-38
2022/07/17 02:41:35;;;;;;;0.10;0.10;;;;;;;21.99;53.32;102243.75;5133610;27;20050;-39
2022/07/17 02:44:00;;;;;;;0.10;0.10;;;;;;;21.99;52.89;102241.81;5137700;27;20047;-37
2022/07/17 02:46:26;;;;;;;0.10;0.10;;;;;;;21.99;52.96;102249.28;5137441;27;20050;-38
2022/07/17 02:48:52;;;;;;;0.10;0.10;;;;;;;21.99;53.15;102246.50;5143620;27;20497;-38
2022/07/17 02:51:17;;;;;;;0.10;0.10;;;;;;;21.99;52.97;102255.66;5135760;27;20043;-37
2022/07/17 02:53:43;;;;;;;0.10;0.10;;;;;;;22.00;53.00;102256.50;5136861;27;20087;-40
2022/07/17 02:56:08;;;;;;;0.10;0.10;;;;;;;21.99;53.18;102260.38;5130021;27;20049;-38
2022/07/17 02:58:34;;;;;;;0.10;0.10;;;;;;;22.01;52.94;102260.94;5131023;27;20056;-39
2022/07/17 03:01:01;;;;;;;0.10;0.10;;;;;;;22.00;53.04;102259.28;5137759;27;20050;-38
2022/07/17 03:03:27;;;;;;;0.10;0.10;;;;;;;22.00;52.96;102257.34;5137208;27;20506;-37
2022/07/17 03:05:53;;;;;;;0.10;0.10;;;;;;;22.00;53.05;102265.66;5134420;27;20048;-37
2022/07/17 03:08:18;;;;;;;0.10;0.10;;;;;;;22.00;52.93;102265.66;5139299;27;20061;-37
2022/07/17 03:10:44;;;;;;;0.10;0.10;;;;;;;22.00;53.12;102265.66;5135687;27;20069;-38
2022/07/17 03:13:10;;;;;;;0.10;0.10;;;;;;;21.99;52.68;102264.00;5135847;27;20094;-39
2022/07/17 03:15:36;;;;;;;0.10;0.10;;;;;;;22.00;52.97;102267.59;5133479;27;20103;-38
2022/07/17 03:18:02;;;;;;;0.10;0.10;;;;;;;22.00;52.98;102270.38;5136482;27;20125;-37
2022/07/17 03:20:28;;;;;;;0.10;0.10;;;;;;;22.00;52.94;102273.16;5123130;27;20049;-38
2022/07/17 03:22:53;;;;;;;0.10;0.10;;;;;;;21.98;52.94;102273.44;5135551;27;20070;-36
2022/07/17 03:25:19;;;;;;;0.10;0.10;;;;;;;22.00;52.95;102268.44;5139993;27;20061;-37
2022/07/17 03:27:45;;;;;;;0.10;0.10;;;;;;;22.00;52.94;102265.66;5117807;27;20125;-38
2022/07/17 03:30:10;;;;;;;0.10;0.10;;;;;;;21.98;53.03;102267.88;5137677;27;20054;-38
2022/07/17 03:32:36;;;;;;;0.10;0.10;;;;;;;21.99;52.91;102277.03;5133632;27;20046;-37
2022/07/17 03:35:02;;;;;;;0.10;0.10;;;;;;;21.98;52.99;102269.81;5137195;27;20102;-37
2022/07/17 03:37:28;;;;;;;0.10;0.10;;;;;;;21.99;52.87;102266.75;5137769;27;20081;-37
2022/07/17 03:39:54;;;;;;;0.20;0.20;;;;;;;21.99;53.01;102272.31;5119784;27;20039;-39
2022/07/17 03:42:20;;;;;;;0.10;0.10;;;;;;;21.99;53.00;102271.47;5116305;27;20047;-40
2022/07/17 03:44:45;;;;;;;0.10;0.10;;;;;;;21.99;52.99;102274.25;5137673;27;20046;-37
2022/07/17 03:47:11;;;;;;;0.10;0.10;;;;;;;21.99;53.01;102275.09;5134675;27;20045;-38
2022/07/17 03:49:37;;;;;;;0.10;0.10;;;;;;;21.99;52.96;102272.31;5137546;27;20392;-39
2022/07/17 03:52:03;;;;;;;0.10;0.10;;;;;;;22.01;53.00;102272.03;5136881;27;20050;-39
2022/07/17 03:54:28;;;;;;;0.10;0.10;;;;;;;21.99;53.02;102271.47;5141217;27;20471;-37
2022/07/17 03:56:54;;;;;;;0.10;0.10;;;;;;;22.00;52.92;102264.81;5137159;27;20054;-39
2022/07/17 03:59:20;;;;;;;0.10;0.10;;;;;;;21.98;52.94;102270.66;5135965;27;20051;-38
2022/07/17 04:01:45;;;;;;;0.10;0.10;;;;;;;21.98;52.97;102272.59;5136969;27;20044;-37
2022/07/17 04:04:11;;;;;;;0.10;0.10;;;;;;;21.98;52.95;102273.44;5138634;27;20433;-37
2022/07/17 04:06:37;;;;;;;0.10;0.10;;;;;;;21.99;52.86;102274.25;5133760;27;20060;-37
2022/07/17 04:09:04;;;;;;;0.10;0.10;;;;;;;21.99;53.00;102275.09;5134807;27;20043;-38
2022/07/17 04:11:29;;;;;;;0.10;0.10;;;;;;;21.97;52.88;102276.44;5138209;27;20508;-38
2022/07/17 04:13:55;;;;;;;0.10;0.10;;;;;;;21.99;52.95;102283.41;5137678;27;20042;-39
2022/07/17 04:16:21;;;;;;;0.10;0.10;;;;;;;21.98;52.79;102276.19;5138630;27;20051;-37
2022/07/17 04:18:46;;;;;;;0.10;0.10;;;;;;;21.99;52.92;102269.53;5137622;27;20043;-38
2022/07/17 04:21:13;;;;;;;0.10;0.10;;;;;;;21.97;52.92;102265.34;5137243;27;20053;-38
2022/07/17 04:23:38;;;;;;;0.10;0.10;;;;;;;21.99;52.87;102264.00;5134940;27;20127;-37
2022/07/17 04:26:06;;;;;;;0.10;0.10;;;;;;;21.97;53.00;102263.41;5139719;27;20413;-37
2022/07/17 04:28:36;;;;;;;0.10;0.10;;;;;;;21.98;52.98;102267.88;5119059;27;20046;-36
2022/07/17 04:31:02;;;;;;;0.10;0.10;;;;;;;21.97;52.89;102280.03;5117801;27;20437;-37
2022/07/17 04:33:28;;;;;;;0.10;0.10;;;;;;;21.99;52.91;102271.47;5116038;27;20043;-37
2022/07/17 04:35:54;;;;;;;0.10;0.10;;;;;;;21.96;52.98;102283.94;5135496;27;20095;-37
2022/07/17 04:38:19;;;;;;;0.10;0.10;;;;;;;21.98;52.88;102280.91;5134942;27;21234;-38
2022/07/17 04:40:46;;;;;;;0.10;0.10;;;;;;;21.98;52.98;102286.47;5138038;27;20049;-38
2022/07/17 04:43:11;;;;;;;0.10;0.10;;;;;;;21.99;52.70;102282.56;5132543;27;20488;-37
2022/07/17 04:45:37;;;;;;;0.10;0.10;;;;;;;21.98;52.87;102287.28;5115306;27;20040;-37
2022/07/17 04:48:04;;;;;;;0.10;0.10;;;;;;;21.98;53.04;102287.28;5118443;27;20062;-38
2022/07/17 04:50:29;;;;;;;0.10;0.10;;;;;;;21.99;52.96;102288.13;5112262;28;20460;-37
2022/07/17 04:52:55;;;;;;;0.10;0.10;;;;;;;21.98;52.87;102290.06;5117988;27;20051;-37
2022/07/17 04:55:21;;;;;;;0.10;0.10;;;;;;;21.99;52.82;102288.13;5119938;27;20047;-37
2022/07/17 04:57:46;;;;;;;0.10;0.10;;;;;;;21.97;52.98;102282.81;5134092;27;20130;-37
2022/07/17 05:00:12;;;;;;;0.10;0.10;;;;;;;21.98;52.89;102283.69;5139568;27;20055;-38
2022/07/17 05:02:38;;;;;;;0.10;0.10;;;;;;;21.96;52.87;102286.72;5135288;27;20059;-35
2022/07/17 05:05:04;;;;;;;0.10;0.10;;;;;;;21.97;53.00;102287.53;5135290;27;20058;-37
2022/07/17 05:07:30;;;;;;;0.10;0.10;;;;;;;21.97;52.92;102291.16;5136412;27;20090;-37
2022/07/17 05:09:55;;;;;;;0.10;0.10;;;;;;;21.97;52.95;102293.91;5138872;27;20051;-37
2022/07/17 05:12:21;;;;;;;0.10;0.10;;;;;;;21.99;52.89;102293.66;5128077;27;20046;-37
2022/07/17 05:14:47;;;;;;;0.10;0.10;;;;;;;21.98;52.96;102298.38;5142113;27;20051;-35
2022/07/17 05:17:13;;;;;;;0.10;0.10;;;;;;;21.97;52.86;102295.84;5138742;27;20052;-36
2022/07/17 05:19:38;;;;;;;0.10;0.10;;;;;;;21.97;52.92;102299.47;5123166;27;20389;-39
2022/07/17 05:22:04;;;;;;;0.10;0.10;;;;;;;21.98;52.87;102309.47;5137721;27;20049;-37
2022/07/17 05:24:30;;;;;;;0.10;0.10;;;;;;;21.98;52.90;102300.34;5142442;27;20130;-36
2022/07/17 05:26:56;;;;;;;0.10;0.10;;;;;;;21.98;52.90;102311.44;5120520;27;20086;-36
2022/07/17 05:29:22;;;;;;;0.10;0.10;;;;;;;21.98;53.11;102303.94;5139333;27;20081;-37
2022/07/17 05:31:48;;;;;;;0.10;0.10;;;;;;;21.97;52.99;102309.72;5138350;27;20043;-37
2022/07/17 05:34:13;;;;;;;0.10;0.10;;;;;;;21.97;52.93;102321.66;5129658;27;20138;-37
2022/07/17 05:36:39;;;;;;;0.10;0.10;;;;;;;21.97;52.76;102321.66;5134012;27;20043;-38
2022/07/17 05:39:05;;;;;;;0.10;0.10;;;;;;;22.00;52.96;102331.41;5139709;27;20053;-39
2022/07/17 05:41:30;;;;;;;0.10;0.10;;;;;;;21.98;52.83;102331.69;5135798;27;20385;-37
2022/07/17 05:43:56;;;;;;;0.10;0.10;;;;;;;21.99;52.88;102330.56;5139808;27;20043;-37
2022/07/17 05:46:22;;;;;;;0.10;0.10;;;;;;;21.98;52.89;102323.34;5136135;27;20086;-39
2022/07/17 05:48:48;;;;;;;0.10;0.10;;;;;;;21.99;52.82;102338.06;5141452;27;20034;-37
2022/07/17 05:51:13;;;;;;;0.10;0.10;;;;;;;21.98;52.94;102328.06;5144922;27;20461;-37
2022/07/17 05:53:45;;;;;;;0.10;0.10;;;;;;;21.97;52.86;102335.53;5139475;27;20051;-39
2022/07/17 05:56:11;;;;;;;0.10;0.10;;;;;;;21.97;53.07;102335.53;5136987;27;20046;-37
2022/07/17 05:58:37;;;;;;;0.13;0.13;;;;;;;21.97;52.88;102331.91;5131108;27;20043;-37
2022/07/17 06:01:02;;;;;;;0.10;0.10;;;;;;;21.97;52.93;102331.91;5137166;27;20038;-37
2022/07/17 06:03:29;;;;;;;0.10;0.10;;;;;;;21.98;52.89;102336.38;5139305;27;20081;-37
2022/07/17 06:05:54;;;;;;;0.10;0.10;;;;;;;21.97;52.83;102329.97;5136663;27;20082;-39
2022/07/17 06:08:20;;;;;;;0.10;0.10;;;;;;;21.97;52.88;102324.44;5116398;27;20043;-37
2022/07/17 06:10:46;;;;;;;0.10;0.10;;;;;;;21.98;52.87;102317.81;5142588;27;20043;-37
2022/07/17 06:13:11;;;;;;;0.10;0.10;;;;;;;21.97;52.80;102320.81;5137887;27;20046;-37
2022/07/17 06:15:37;;;;;;;0.10;0.10;;;;;;;21.97;53.03;102324.44;5139319;27;20499;-38
2022/07/17 06:18:03;;;;;;;0.10;0.10;;;;;;;21.98;52.78;102325.28;5120712;27;20124;-37
2022/07/17 06:20:29;;;;;;;0.10;0.10;;;;;;;21.99;52.96;102322.25;5142510;27;20035;-36
2022/07/17 06:22:55;;;;;;;0.10;0.10;;;;;;;21.98;52.83;102322.53;5114383;27;20042;-36
2022/07/17 06:25:20;;;;;;;0.10;0.10;;;;;;;21.98;52.78;102317.81;5139185;27;20054;-35
2022/07/17 06:27:46;;;;;;;0.10;0.10;;;;;;;21.96;52.83;102308.91;5137381;27;20046;-37
2022/07/17 06:30:14;;;;;;;0.10;0.10;;;;;;;21.98;52.90;102306.72;5135401;27;20401;-37
2022/07/17 06:32:39;;;;;;;0.10;0.10;;;;;;;21.97;52.96;102305.00;5137429;27;20409;-36
2022/07/17 06:35:06;;;;;;;0.10;0.10;;;;;;;21.97;52.86;102307.78;5142285;27;20078;-37
2022/07/17 06:37:32;;;;;;;0.10;0.10;;;;;;;21.98;52.90;102312.25;5137714;27;20062;-37
2022/07/17 06:39:58;;;;;;;0.10;0.10;;;;;;;21.99;52.86;102299.22;5137530;27;20035;-38
2022/07/17 06:42:24;;;;;;;0.10;0.10;;;;;;;21.97;52.86;102291.16;5140943;27;20437;-35
2022/07/17 06:44:56;;;;;;;0.10;0.10;;;;;;;21.98;52.80;102297.56;5140972;27;20062;-37
2022/07/17 06:47:22;;;;;;;0.10;0.10;;;;;;;21.98;52.83;102305.88;5130600;27;20051;-37
2022/07/17 06:49:48;;;;;;;0.10;0.10;;;;;;;21.98;52.82;102292.00;5132692;27;20039;-37
2022/07/17 06:52:13;;;;;;;0.10;0.10;;;;;;;21.96;52.65;102296.97;5134388;27;20039;-37
2022/07/17 06:54:39;;;;;;;0.10;0.10;;;;;;;21.97;52.83;102295.84;5139939;27;20040;-37
2022/07/17 06:57:05;;;;;;;0.10;0.10;;;;;;;21.98;52.80;102301.16;5136366;27;20043;-37
2022/07/17 06:59:30;;;;;;;0.10;0.10;;;;;;;21.98;52.77;102295.63;5137299;27;20054;-37
2022/07/17 07:01:56;;;;;;;0.10;0.10;;;;;;;21.98;52.82;102290.06;5141038;27;20076;-37
2022/07/17 07:04:22;;;;;;;0.10;0.10;;;;;;;21.98;52.86;102298.38;5132299;27;20047;-39
2022/07/17 07:06:48;;;;;;;0.10;0.10;;;;;;;21.98;52.82;102298.38;5134737;27;20432;-37
2022/07/17 07:09:13;;;;;;;0.10;0.10;;;;;;;21.97;52.89;102307.78;5135976;27;20043;-37
2022/07/17 07:11:42;;;;;;;0.10;0.10;;;;;;;21.98;52.78;102312.25;5131644;27;20039;-37
2022/07/17 07:14:08;;;;;;;0.10;0.10;;;;;;;21.97;52.76;102313.34;5110886;27;20038;-36
2022/07/17 07:16:34;;;;;;;0.10;0.10;;;;;;;21.97;52.82;102313.34;5136520;27;20096;-37
2022/07/17 07:19:00;;;;;;;0.10;0.10;;;;;;;21.98;52.90;102300.34;5141261;27;20121;-37
2022/07/17 07:21:26;;;;;;;0.10;0.10;;;;;;;21.98;52.95;102298.38;5118217;27;20149;-37
2022/07/17 07:23:54;;;;;;;0.10;0.10;;;;;;;21.96;52.87;102292.25;5136406;27;20481;-37
2022/07/17 07:26:19;;;;;;;0.10;0.10;;;;;;;21.98;52.80;102294.78;5135690;27;20142;-39
2022/07/17 07:28:45;;;;;;;0.10;0.10;;;;;;;21.98;52.78;102300.34;5144088;27;20038;-36
2022/07/17 07:31:11;;;;;;;0.10;0.10;;;;;;;21.97;52.84;102307.78;5139046;27;20078;-37
2022/07/17 07:33:37;;;;;;;0.10;0.10;;;;;;;21.97;52.83;102305.00;5133493;27;20050;-37
2022/07/17 07:36:03;;;;;;;0.10;0.10;;;;;;;21.98;53.04;102316.97;5119631;27;20081;-37
2022/07/17 07:38:29;;;;;;;0.10;0.10;;;;;;;21.95;52.48;102298.91;5137519;27;20104;-39
2022/07/17 07:40:55;;;;;;;0.10;0.10;;;;;;;21.96;52.73;102308.06;5096868;27;20039;-37
2022/07/17 07:43:20;;;;;;;0.10;0.10;;;;;;;21.95;52.83;102311.94;5117242;27;20397;-36
2022/07/17 07:45:46;;;;;;;1.65;0.13;;;;;;;21.97;52.80;102323.59;5137571;27;20051;-37
2022/07/17 07:48:12;;;;;;;0.10;0.10;;;;;;;21.98;53.02;102333.63;5115055;27;20049;-37
2022/07/17 07:50:38;;;;;;;0.10;0.10;;;;;;;21.96;52.91;102333.84;5140206;27;20043;-37
2022/07/17 07:53:04;;;;;;;0.10;0.10;;;;;;;21.96;52.82;102338.56;5142794;27;20039;-38
2022/07/17 07:55:29;;;;;;;0.10;0.10;;;;;;;21.98;52.75;102336.38;5136412;27;20042;-37
2022/07/17 07:58:05;;;;;;;0.10;0.10;;;;;;;21.97;52.81;102348.56;5143235;27;20507;-37
2022/07/17 08:00:30;;;;;;;0.10;0.10;;;;;;;21.95;52.90;102342.47;5118653;27;20069;-38
2022/07/17 08:02:56;;;;;;;0.10;0.10;;;;;;;21.94;52.99;102349.13;5135186;27;20553;-38
2022/07/17 08:05:22;;;;;;;0.10;0.10;;;;;;;21.97;52.90;102351.34;5139155;27;20046;-38
2022/07/17 08:07:47;;;;;;;0.10;0.10;;;;;;;21.97;52.91;102348.56;5138629;27;20540;-37
2022/07/17 08:10:13;;;;;;;0.10;0.10;;;;;;;21.97;52.92;102348.56;5116515;27;20051;-36
2022/07/17 08:12:39;;;;;;;0.10;0.10;;;;;;;21.97;52.90;102349.41;5140663;27;20042;-38
2022/07/17 08:15:16;;;;;;;0.10;0.10;;;;;;;21.97;52.93;102348.56;5135659;27;20126;-39
2022/07/17 08:17:43;;;;;;;0.10;0.10;;;;;;;21.96;52.83;102350.50;5116645;27;20617;-37
2022/07/17 08:20:09;;;;;;;0.10;0.10;;;;;;;21.95;53.02;102348.84;5117931;27;20093;-35
2022/07/17 08:22:42;;;;;;;0.10;0.10;;;;;;;21.96;52.70;102346.91;5132617;27;20044;-38
2022/07/17 08:25:28;;;;;;;0.10;0.10;;;;;;;21.96;52.87;102347.72;5105995;27;20055;-38
2022/07/17 08:27:53;;;;;;;0.10;0.10;;;;;;;21.96;52.79;102346.91;5137389;27;20085;-38
2022/07/17 08:30:20;;;;;;;0.10;0.10;;;;;;;21.96;52.83;102347.72;5137839;27;20688;-38
2022/07/17 08:32:45;;;;;;;0.10;0.10;;;;;;;21.96;52.90;102349.66;5133271;27;20057;-38
2022/07/17 08:35:11;;;;;;;0.10;0.10;;;;;;;21.95;52.92;102353.56;5136233;27;20043;-38
2022/07/17 08:37:43;;;;;;;0.10;0.10;;;;;;;21.96;53.03;102358.81;5115400;27;20130;-37
2022/07/17 08:40:15;;;;;;;0.10;0.10;;;;;;;21.98;53.06;102358.59;5120405;27;20753;-37
2022/07/17 08:42:42;;;;;;;0.10;0.10;;;;;;;21.96;52.95;102358.81;5135495;27;20035;-37
2022/07/17 08:45:09;;;;;;;0.10;0.10;;;;;;;21.96;52.84;102350.50;5132909;27;20093;-38
2022/07/17 08:47:36;;;;;;;0.10;0.10;;;;;;;21.96;52.96;102350.50;5136907;27;20042;-35
2022/07/17 08:50:03;;;;;;;0.10;0.10;;;;;;;21.95;52.69;102346.06;5140767;27;20078;-36
2022/07/17 08:52:29;;;;;;;0.10;0.10;;;;;;;21.96;53.01;102342.19;5123350;27;20488;-36
2022/07/17 08:54:55;;;;;;;0.10;0.10;;;;;;;21.97;53.00;102343.00;5120453;27;20035;-37
2022/07/17 08:57:21;;;;;;;0.10;0.10;;;;;;;21.96;52.74;102335.81;5136025;27;20151;-37
2022/07/17 08:59:47;;;;;;;0.10;0.10;;;;;;;21.96;52.73;102336.63;5142656;27;20062;-37
2022/07/17 09:02:13;;;;;;;0.10;0.10;;;;;;;21.97;52.64;102338.28;5122164;27;20397;-36
2022/07/17 09:04:40;;;;;;;0.10;0.10;;;;;;;21.95;52.75;102332.19;5121862;27;20088;-37
2022/07/17 09:07:06;;;;;;;0.10;0.10;;;;;;;21.97;52.66;102335.53;5121559;27;20107;-37
2022/07/17 09:09:33;;;;;;;0.10;0.10;;;;;;;21.97;52.76;102341.06;5118700;27;20482;-37
2022/07/17 09:12:00;;;;;;;0.10;0.10;;;;;;;21.97;52.79;102332.75;5125797;27;20530;-37
2022/07/17 09:14:41;;;;;;;0.10;0.10;;;;;;;21.96;52.99;102324.72;5121486;27;20050;-37
2022/07/17 09:17:09;;;;;;;0.10;0.10;;;;;;;21.96;52.70;102327.47;5139741;27;20043;-37
2022/07/17 09:19:39;;;;;;;0.10;0.10;;;;;;;21.96;52.74;102333.84;5135850;27;20075;-37
2022/07/17 09:24:49;;;;;;;0.10;0.10;;;;;;;21.95;52.79;102334.13;5179027;27;20116;-38
2022/07/17 09:27:30;;;;;;;0.10;0.10;;;;;;;21.97;52.84;102335.53;5162541;27;20488;-38
2022/07/17 09:30:11;;;;;;;0.10;0.10;;;;;;;21.97;52.89;102334.69;5147101;27;20440;-38
2022/07/17 09:32:39;;;;;;;0.10;0.10;;;;;;;21.96;52.71;102336.63;5144808;27;20088;-39
2022/07/17 09:35:06;;;;;;;0.10;0.10;;;;;;;21.98;52.81;102336.38;5126053;27;20046;-39
2022/07/17 09:37:33;;;;;;;0.10;0.10;;;;;;;21.94;52.78;102330.53;5166986;27;20081;-38
2022/07/17 09:39:59;;;;;;;0.10;0.10;;;;;;;21.97;52.88;102331.91;5146073;27;20074;-38
2022/07/17 09:42:29;;;;;;;0.10;0.10;;;;;;;21.97;52.87;102335.53;5152917;27;20053;-38
2022/07/17 09:44:57;;;;;;;0.10;0.10;;;;;;;21.96;52.80;102333.84;5124263;27;20074;-38
2022/07/17 09:47:24;;;;;;;0.10;0.10;;;;;;;21.94;52.86;102333.31;5120830;27;20035;-38
2022/07/17 09:49:53;;;;;;;0.10;0.10;;;;;;;21.96;52.99;102325.53;5144918;27;20496;-38
2022/07/17 09:52:19;;;;;;;0.10;0.10;;;;;;;21.96;52.76;102322.75;5108414;27;20108;-39
2022/07/17 09:54:47;;;;;;;0.10;0.10;;;;;;;21.96;53.00;102331.09;5144036;27;20043;-37
2022/07/17 09:57:13;;;;;;;;;;;;;;;21.96;52.85;102321.94;5125782;27;20043;-38
2022/07/17 09:59:40;;;;;;;0.10;0.10;;;;;;;21.96;53.11;102328.31;5124630;27;20413;-37
2022/07/17 10:02:06;;;;;;;0.10;0.10;;;;;;;21.96;52.99;102330.25;5145035;27;20070;-37
2022/07/17 10:04:34;;;;;;;0.10;0.10;;;;;;;21.96;52.79;102336.63;5143364;27;20055;-38
2022/07/17 10:06:59;;;;;;;0.10;0.10;;;;;;;21.96;52.73;102333.03;5121459;27;20081;-38
2022/07/17 10:09:25;;;;;;;0.10;0.10;;;;;;;21.97;53.03;102337.47;5142957;27;20078;-38
2022/07/17 10:11:51;;;;;;;0.10;0.10;;;;;;;21.96;52.93;102335.81;5145607;27;20049;-39
2022/07/17 10:14:18;;;;;;;0.10;0.10;;;;;;;21.96;53.17;102333.03;5142267;27;20474;-39
2022/07/17 10:16:45;;;;;;;0.10;0.10;;;;;;;21.96;52.85;102330.25;5109335;27;20085;-38
2022/07/17 10:19:19;;;;;;;0.10;0.10;;;;;;;21.95;52.94;102337.75;5126745;27;20042;-38
2022/07/17 10:21:55;;;;;;;0.10;0.10;;;;;;;21.97;52.76;102337.47;5145286;27;20051;-38
2022/07/17 10:24:21;;;;;;;0.10;0.10;;;;;;;21.96;52.80;102338.56;5109255;27;20105;-38
2022/07/17 10:26:49;;;;;;;0.10;0.10;;;;;;;21.97;53.07;102334.69;5102757;27;20385;-38
2022/07/17 10:29:32;;;;;;;;;;;;;;;21.97;53.15;102343.84;5126726;27;20469;-39
2022/07/17 10:31:59;;;;;;;0.10;0.10;;;;;;;21.97;52.76;102331.91;5126182;27;20010;-38
2022/07/17 10:34:46;;;;;;;0.10;0.10;;;;;;;21.97;52.82;102340.25;5119548;28;20871;-39
2022/07/17 10:37:35;;;;;;;0.10;0.10;;;;;;;21.96;52.99;102336.63;5115206;28;20051;-38
2022/07/17 10:43:00;;;;;;;0.10;0.10;;;;;;;21.95;52.91;102340.53;5166125;27;20206;-38
2022/07/17 10:45:42;;;;;;;0.10;0.10;;;;;;;21.96;53.03;102342.19;5134055;27;20108;-37
2022/07/17 10:48:11;;;;;;;0.10;0.10;;;;;;;21.96;53.06;102341.34;5138088;27;20218;-37
2022/07/17 10:50:40;;;;;;;0.10;0.10;;;;;;;21.96;53.08;102330.25;5135495;27;20506;-38
2022/07/17 10:53:09;;;;;;;0.10;0.10;;;;;;;21.96;52.95;102333.84;5155169;27;20043;-38
2022/07/17 10:55:37;;;;;;;0.10;0.10;;;;;;;21.96;52.69;102333.84;5123940;27;20046;-37
2022/07/17 10:58:04;;;;;;;0.10;0.10;;;;;;;21.96;52.66;102331.09;5134266;27;20043;-37
2022/07/17 11:00:31;;;;;;;0.10;0.10;;;;;;;21.96;52.74;102327.47;5154139;27;20141;-37
2022/07/17 11:02:56;;;;;;;0.10;0.10;;;;;;;21.96;52.66;102333.03;5146457;27;20049;-39
2022/07/17 11:05:22;;;;;;;0.10;0.10;;;;;;;21.97;52.99;102329.16;5158231;27;20473;-37
2022/07/17 11:07:54;;;;;;;0.10;0.10;;;;;;;21.98;53.06;102328.06;5155645;27;20099;-37
2022/07/17 11:10:21;;;;;;;0.10;0.10;;;;;;;21.97;53.00;102327.19;5158016;27;20130;-38
2022/07/17 11:12:47;;;;;;;0.10;0.10;;;;;;;21.96;53.06;102325.53;5153361;27;20269;-37
2022/07/17 11:15:13;;;;;;;0.10;0.10;;;;;;;21.96;52.57;102322.75;5156498;27;20047;-36
2022/07/17 11:17:44;;;;;;;0.10;0.10;;;;;;;21.98;52.63;102322.53;5137937;27;20051;-37
2022/07/17 11:20:10;;;;;;;0.10;0.10;;;;;;;21.96;52.74;102321.94;5158447;27;20721;-37
2022/07/17 11:22:36;;;;;;;0.10;0.10;;;;;;;21.97;52.75;102313.34;5153913;27;20039;-38
2022/07/17 11:25:04;;;;;;;0.10;0.10;;;;;;;21.96;52.47;102302.53;5159826;27;20049;-37
2022/07/17 11:27:30;;;;;;;0.10;0.10;;;;;;;21.96;52.83;102310.84;5130899;27;20070;-36
2022/07/17 11:29:59;;;;;;;0.10;0.10;;;;;;;21.97;52.66;102309.72;5132766;27;20470;-37